createdAt,value
2022-09-10T00:01:59.405Z,6.00
2022-09-10T00:06:53.783Z,3.42
2022-09-10T00:09:20.223Z,4.55
2022-09-10T00:11:46.858Z,5.20
2022-09-10T00:14:19.014Z,4.28
2022-09-10T00:16:45.851Z,5.63
2022-09-10T00:19:12.620Z,8.82
2022-09-10T00:21:39.212Z,5.65
2022-09-10T00:24:05.983Z,3.47
2022-09-10T00:26:38.117Z,3.83
2022-09-10T00:29:06.650Z,6.50
2022-09-10T00:31:34.043Z,4.47
2022-09-10T00:34:02.155Z,4.70
2022-09-10T00:36:36.054Z,7.97
2022-09-10T00:39:06.532Z,4.45
2022-09-10T00:41:34.745Z,6.75
2022-09-10T00:44:04.911Z,3.25
2022-09-10T00:46:46.058Z,3.58
2022-09-10T00:49:21.327Z,6.10
2022-09-10T00:51:51.375Z,4.18
2022-09-10T00:54:21.945Z,6.55
2022-09-10T00:56:49.734Z,5.38
2022-09-10T00:59:20.298Z,4.15
2022-09-10T01:01:48.097Z,3.78
2022-09-10T01:04:15.556Z,5.32
2022-09-10T01:06:45.701Z,4.05
2022-09-10T01:09:14.342Z,5.90
2022-09-10T01:14:28.402Z,5.10
2022-09-10T01:19:43.080Z,5.38
2022-09-10T01:22:28.205Z,5.70
2022-09-10T01:25:06.706Z,8.32
2022-09-10T01:30:24.421Z,6.45
2022-09-10T01:33:09.355Z,8.73
2022-09-10T01:35:48.202Z,8.18
2022-09-10T01:38:20.617Z,7.10
2022-09-10T01:40:48.319Z,10.00
2022-09-10T01:43:14.935Z,7.83
2022-09-10T01:46:14.490Z,12.20
2022-09-10T01:48:59.820Z,8.43
2022-09-10T01:51:41.274Z,6.57
2022-09-10T01:54:24.747Z,7.32
2022-09-10T01:56:55.782Z,5.32
2022-09-10T01:59:40.460Z,6.55
2022-09-10T02:02:13.388Z,7.68
2022-09-10T02:04:42.464Z,6.00
2022-09-10T02:07:11.317Z,4.60
2022-09-10T02:09:38.492Z,10.48
2022-09-10T02:12:05.167Z,4.93
2022-09-10T02:14:31.792Z,4.18
2022-09-10T02:17:00.840Z,5.75
2022-09-10T02:19:27.808Z,5.65
2022-09-10T02:21:57.045Z,10.05
2022-09-10T02:24:23.810Z,4.45
2022-09-10T02:26:51.089Z,3.25
2022-09-10T02:29:19.249Z,5.30
2022-09-10T02:31:46.450Z,8.63
2022-09-10T02:34:13.154Z,4.88
2022-09-10T02:36:40.468Z,6.88
2022-09-10T02:39:08.027Z,11.32
2022-09-10T02:41:35.182Z,3.42
2022-09-10T02:44:02.415Z,5.45
2022-09-10T02:46:29.546Z,11.25
2022-09-10T02:48:56.313Z,9.88
2022-09-10T02:51:23.731Z,4.55
2022-09-10T02:53:50.479Z,8.57
2022-09-10T02:56:19.526Z,5.57
2022-09-10T02:58:46.239Z,8.65
2022-09-10T03:01:15.359Z,4.43
2022-09-10T03:03:42.841Z,4.88
2022-09-10T03:06:10.132Z,7.13
2022-09-10T03:08:36.765Z,5.18
2022-09-10T03:11:04.438Z,8.30
2022-09-10T03:13:30.977Z,3.67
2022-09-10T03:16:04.009Z,4.00
2022-09-10T03:18:35.370Z,3.63
2022-09-10T03:21:20.190Z,4.25
2022-09-10T03:23:49.460Z,4.80
2022-09-10T03:26:17.599Z,4.20
2022-09-10T03:28:44.986Z,6.32
2022-09-10T03:31:11.742Z,2.75
2022-09-10T03:33:38.294Z,3.38
2022-09-10T03:36:05.403Z,3.83
2022-09-10T03:38:32.613Z,7.50
2022-09-10T03:41:02.018Z,3.15
2022-09-10T03:43:29.172Z,4.53
2022-09-10T03:45:55.669Z,2.42
2022-09-10T03:48:23.031Z,2.88
2022-09-10T03:50:50.908Z,4.15
2022-09-10T03:53:19.082Z,3.63
2022-09-10T03:55:47.553Z,5.75
2022-09-10T03:58:15.333Z,5.75
2022-09-10T04:00:42.920Z,4.30
2022-09-10T04:03:11.022Z,5.80
2022-09-10T04:05:43.525Z,3.30
2022-09-10T04:08:11.338Z,3.92
2022-09-10T04:10:39.101Z,5.90
2022-09-10T04:13:05.708Z,5.53
2022-09-10T04:15:32.155Z,2.65
2022-09-10T04:17:58.717Z,3.75
2022-09-10T04:20:25.791Z,4.10
2022-09-10T04:22:53.685Z,2.88
2022-09-10T04:25:20.503Z,3.28
2022-09-10T04:27:47.519Z,4.47
2022-09-10T04:30:14.374Z,7.93
2022-09-10T04:32:40.971Z,3.92
2022-09-10T04:35:08.119Z,2.10
2022-09-10T04:37:35.022Z,3.05
2022-09-10T04:40:02.003Z,2.75
2022-09-10T04:42:28.632Z,3.53
2022-09-10T04:44:55.108Z,3.88
2022-09-10T04:47:21.571Z,3.53
2022-09-10T04:49:48.048Z,4.25
2022-09-10T04:52:17.120Z,4.68
2022-09-10T04:54:43.598Z,3.45
2022-09-10T04:57:10.086Z,4.57
2022-09-10T04:59:36.569Z,2.90
2022-09-10T05:02:03.734Z,4.22
2022-09-10T05:04:30.360Z,5.28
2022-09-10T05:06:57.791Z,4.10
2022-09-10T05:09:24.509Z,3.17
2022-09-10T05:11:51.070Z,4.65
2022-09-10T05:14:17.584Z,5.68
2022-09-10T05:16:45.475Z,9.13
2022-09-10T05:19:17.805Z,7.78
2022-09-10T05:21:45.287Z,7.35
2022-09-10T05:24:12.499Z,5.25
2022-09-10T05:26:39.951Z,6.68
2022-09-10T05:29:06.706Z,3.92
2022-09-10T05:31:35.110Z,4.88
2022-09-10T05:34:01.928Z,4.65
2022-09-10T05:36:29.329Z,3.70
2022-09-10T05:38:55.807Z,5.18
2022-09-10T05:41:22.374Z,2.55
2022-09-10T05:43:48.897Z,4.43
2022-09-10T05:46:15.922Z,8.05
2022-09-10T05:48:43.153Z,5.25
2022-09-10T05:51:09.825Z,7.75
2022-09-10T05:53:36.308Z,3.20
2022-09-10T05:56:02.951Z,4.88
2022-09-10T05:58:30.084Z,6.25
2022-09-10T06:00:58.116Z,5.82
2022-09-10T06:03:24.744Z,4.85
2022-09-10T06:05:51.839Z,3.65
2022-09-10T06:08:21.114Z,6.25
2022-09-10T06:11:05.107Z,8.57
2022-09-10T06:13:33.108Z,9.30
2022-09-10T06:16:00.246Z,7.78
2022-09-10T06:18:26.984Z,6.75
2022-09-10T06:21:09.410Z,4.75
2022-09-10T06:23:39.307Z,7.10
2022-09-10T06:26:09.759Z,4.10
2022-09-10T06:28:36.300Z,6.65
2022-09-10T06:31:04.452Z,5.38
2022-09-10T06:33:31.794Z,7.95
2022-09-10T06:36:00.677Z,4.57
2022-09-10T06:38:33.526Z,5.18
2022-09-10T06:41:02.198Z,4.78
2022-09-10T06:43:33.109Z,4.25
2022-09-10T06:45:59.880Z,4.88
2022-09-10T06:48:48.054Z,4.65
2022-09-10T06:53:43.908Z,5.72
2022-09-10T06:56:12.146Z,9.95
2022-09-10T06:58:39.809Z,3.90
2022-09-10T07:01:14.853Z,4.93
2022-09-10T07:03:43.469Z,6.40
2022-09-10T07:08:37.590Z,4.97
2022-09-10T07:11:08.078Z,7.05
2022-09-10T07:13:35.289Z,6.47
2022-09-10T07:16:01.923Z,4.95
2022-09-10T07:18:28.856Z,5.72
2022-09-10T07:21:06.780Z,6.18
2022-09-10T07:23:33.310Z,4.22
2022-09-10T07:26:08.124Z,12.55
2022-09-10T07:28:36.257Z,9.65
2022-09-10T07:31:13.677Z,6.78
2022-09-10T07:33:40.639Z,9.18
2022-09-10T07:36:08.287Z,6.47
2022-09-10T07:38:34.874Z,7.77
2022-09-10T07:41:02.036Z,5.28
2022-09-10T07:43:29.287Z,7.82
2022-09-10T07:45:56.094Z,7.25
2022-09-10T07:48:22.672Z,9.52
2022-09-10T07:50:49.311Z,6.75
2022-09-10T07:53:16.437Z,4.50
2022-09-10T07:55:42.898Z,8.07
2022-09-10T07:58:10.188Z,4.95
2022-09-10T08:00:36.833Z,6.72
2022-09-10T08:03:04.230Z,8.00
2022-09-10T08:05:31.070Z,7.97
2022-09-10T08:07:58.071Z,8.38
2022-09-10T08:10:24.535Z,6.57
2022-09-10T08:12:51.037Z,6.13
2022-09-10T08:15:18.095Z,6.53
2022-09-10T08:17:44.645Z,7.78
2022-09-10T08:20:11.210Z,5.30
2022-09-10T08:22:37.708Z,7.00
2022-09-10T08:25:04.596Z,10.32
2022-09-10T08:27:32.588Z,8.45
2022-09-10T08:29:59.032Z,10.05
2022-09-10T08:32:25.648Z,8.43
2022-09-10T08:34:52.456Z,9.23
2022-09-10T08:37:19.101Z,9.05
2022-09-10T08:39:45.725Z,6.50
2022-09-10T08:42:39.956Z,7.07
2022-09-10T08:45:16.055Z,8.48
2022-09-10T08:47:49.262Z,9.05
2022-09-10T08:50:19.086Z,4.78
2022-09-10T08:53:22.982Z,7.50
2022-09-10T08:55:50.980Z,6.30
2022-09-10T08:58:25.280Z,7.78
2022-09-10T09:00:57.980Z,7.68
2022-09-10T09:03:47.756Z,4.45
2022-09-10T09:06:41.234Z,4.18
2022-09-10T09:09:15.311Z,6.13
2022-09-10T09:11:59.453Z,4.03
2022-09-10T09:14:36.036Z,5.75
2022-09-10T09:17:09.226Z,4.78
2022-09-10T09:19:38.870Z,5.25
2022-09-10T09:22:17.269Z,8.23
2022-09-10T09:27:16.801Z,4.45
2022-09-10T09:30:15.670Z,5.85
2022-09-10T09:32:45.279Z,4.63
2022-09-10T09:35:19.919Z,4.25
2022-09-10T09:37:50.159Z,4.53
2022-09-10T09:40:19.580Z,4.28
2022-09-10T09:43:12.325Z,4.13
2022-09-10T09:45:44.149Z,6.45
2022-09-10T09:48:15.521Z,5.32
2022-09-10T09:50:48.092Z,4.88
2022-09-10T09:53:25.176Z,5.18
2022-09-10T09:56:03.437Z,5.00
2022-09-10T09:58:33.577Z,7.10
2022-09-10T10:01:13.194Z,4.47
2022-09-10T10:03:50.320Z,3.90
2022-09-10T10:06:19.659Z,3.42
2022-09-10T10:08:56.062Z,5.43
2022-09-10T10:11:39.231Z,5.63
2022-09-10T10:14:24.041Z,5.95
2022-09-10T10:16:57.302Z,4.45
2022-09-10T10:19:38.470Z,6.85
2022-09-10T10:24:51.565Z,6.75
2022-09-10T10:27:32.947Z,5.28
2022-09-10T10:30:03.929Z,5.53
2022-09-10T10:32:52.306Z,11.23
2022-09-10T10:38:15.833Z,5.32
2022-09-10T10:40:57.124Z,6.13
2022-09-10T10:43:54.547Z,7.35
2022-09-10T10:46:27.975Z,6.20
2022-09-10T10:49:03.635Z,3.95
2022-09-10T10:52:01.428Z,6.75
2022-09-10T10:54:37.451Z,8.00
2022-09-10T10:57:25.007Z,5.00
2022-09-10T11:00:14.427Z,6.32
2022-09-10T11:03:09.326Z,4.70
2022-09-10T11:05:38.559Z,5.90
2022-09-10T11:08:27.840Z,7.10
2022-09-10T11:11:33.543Z,5.88
2022-09-10T11:14:23.143Z,5.45
2022-09-10T11:17:16.603Z,4.53
2022-09-10T11:20:24.762Z,5.20
2022-09-10T11:22:53.550Z,6.07
2022-09-10T11:25:30.439Z,6.65
2022-09-10T11:28:05.933Z,4.97
2022-09-10T11:30:35.127Z,8.18
2022-09-10T11:33:25.417Z,6.75
2022-09-10T11:36:11.774Z,4.60
2022-09-10T11:39:05.698Z,6.05
2022-09-10T11:41:35.672Z,8.90
2022-09-10T11:44:36.614Z,5.85
2022-09-10T11:47:03.235Z,6.05
2022-09-10T11:49:52.291Z,4.60
2022-09-10T11:52:21.331Z,6.03
2022-09-10T11:54:47.882Z,3.92
2022-09-10T11:57:14.311Z,5.07
2022-09-10T12:00:01.998Z,8.15
2022-09-10T12:03:09.964Z,5.03
2022-09-10T12:06:09.368Z,8.70
2022-09-10T12:09:04.187Z,5.13
2022-09-10T12:12:08.180Z,6.03
2022-09-10T12:14:39.440Z,6.50
2022-09-10T12:17:31.473Z,9.93
2022-09-10T12:20:00.068Z,8.07
2022-09-10T12:25:03.124Z,6.03
2022-09-10T12:27:49.952Z,4.22
2022-09-10T12:30:25.319Z,6.63
2022-09-10T12:32:55.535Z,4.35
2022-09-10T12:35:37.993Z,3.38
2022-09-10T12:38:42.115Z,2.75
2022-09-10T12:41:32.439Z,4.25
2022-09-10T12:44:00.267Z,4.00
2022-09-10T12:46:28.703Z,5.80
2022-09-10T12:48:58.985Z,5.00
2022-09-10T12:51:47.467Z,2.60
2022-09-10T12:54:29.526Z,9.38
2022-09-10T12:57:05.309Z,3.85
2022-09-10T12:59:53.484Z,4.47
2022-09-10T13:02:26.080Z,3.78
2022-09-10T13:05:00.194Z,3.45
2022-09-10T13:07:37.307Z,6.07
2022-09-10T13:10:22.523Z,4.53
2022-09-10T13:12:55.441Z,4.50
2022-09-10T13:15:25.704Z,4.75
2022-09-10T13:17:52.104Z,10.30
2022-09-10T13:20:29.522Z,3.83
2022-09-10T13:22:58.885Z,5.63
2022-09-10T13:25:41.579Z,6.25
2022-09-10T13:28:33.776Z,8.07
2022-09-10T13:31:04.923Z,3.92
2022-09-10T13:33:44.792Z,6.82
2022-09-10T13:36:16.669Z,4.65
2022-09-10T13:38:56.835Z,4.95
2022-09-10T13:41:49.093Z,5.53
2022-09-10T13:44:30.980Z,4.55
2022-09-10T13:47:03.304Z,5.60
2022-09-10T13:50:14.699Z,4.32
2022-09-10T13:52:45.702Z,6.05
2022-09-10T13:55:30.239Z,5.35
2022-09-10T13:58:01.281Z,7.07
2022-09-10T14:00:36.007Z,7.97
2022-09-10T14:03:13.152Z,7.30
2022-09-10T14:05:50.779Z,8.48
2022-09-10T14:08:24.166Z,13.03
2022-09-10T14:10:53.040Z,10.52
2022-09-10T14:13:35.056Z,8.55
2022-09-10T14:16:04.195Z,18.27
2022-09-10T14:18:45.426Z,12.20
2022-09-10T14:21:17.106Z,9.05
2022-09-10T14:23:48.170Z,9.30
2022-09-10T14:26:24.285Z,9.45
2022-09-10T14:28:56.833Z,9.18
2022-09-10T14:31:30.778Z,11.85
2022-09-10T14:33:59.116Z,10.75
2022-09-10T14:36:29.622Z,11.10
2022-09-10T14:39:20.174Z,12.23
2022-09-10T14:41:47.549Z,8.63
2022-09-10T14:44:23.253Z,9.88
2022-09-10T14:46:52.802Z,8.85
2022-09-10T14:49:29.062Z,11.00
2022-09-10T14:51:56.828Z,12.23
2022-09-10T14:54:24.449Z,8.80
2022-09-10T14:56:51.189Z,8.40
2022-09-10T14:59:30.330Z,7.75
2022-09-10T15:01:59.178Z,7.90
2022-09-10T15:04:26.714Z,8.02
2022-09-10T15:06:54.746Z,14.43
2022-09-10T15:09:21.999Z,7.35
2022-09-10T15:12:06.867Z,8.15
2022-09-10T15:14:34.201Z,8.18
2022-09-10T15:17:00.979Z,9.18
2022-09-10T15:19:27.895Z,8.07
2022-09-10T15:21:56.175Z,8.02
2022-09-10T15:24:23.268Z,6.90
2022-09-10T15:26:50.758Z,7.38
2022-09-10T15:29:17.990Z,8.35
2022-09-10T15:31:45.091Z,10.95
2022-09-10T15:34:12.129Z,12.18
2022-09-10T15:36:40.200Z,7.57
2022-09-10T15:39:08.191Z,9.20
2022-09-10T15:41:34.682Z,6.40
2022-09-10T15:44:02.871Z,5.45
2022-09-10T15:46:29.505Z,9.30
2022-09-10T15:48:58.735Z,8.82
2022-09-10T15:51:25.552Z,8.65
2022-09-10T15:53:53.297Z,10.48
2022-09-10T15:56:21.484Z,9.48
2022-09-10T15:58:49.794Z,7.43
2022-09-10T16:01:16.402Z,7.90
2022-09-10T16:03:50.301Z,12.13
2022-09-10T16:06:19.395Z,8.73
2022-09-10T16:11:20.202Z,12.82
2022-09-10T16:13:46.877Z,13.63
2022-09-10T16:16:18.606Z,8.85
2022-09-10T16:18:45.911Z,13.30
2022-09-10T16:21:15.666Z,10.07
2022-09-10T16:23:43.086Z,9.27
2022-09-10T16:26:15.755Z,8.05
2022-09-10T16:28:48.336Z,8.90
2022-09-10T16:31:17.188Z,9.65
2022-09-10T16:33:43.788Z,6.75
2022-09-10T16:36:10.930Z,11.07
2022-09-10T16:38:37.794Z,7.90
2022-09-10T16:41:06.562Z,8.93
2022-09-10T16:43:36.768Z,8.48
2022-09-10T16:46:09.283Z,9.20
2022-09-10T16:48:37.283Z,10.48
2022-09-10T16:51:07.236Z,9.13
2022-09-10T16:53:36.528Z,10.65
2022-09-10T16:58:35.803Z,7.68
2022-09-10T17:01:06.026Z,12.13
2022-09-10T17:03:32.787Z,7.55
2022-09-10T17:06:00.010Z,8.13
2022-09-10T17:08:29.286Z,7.30
2022-09-10T17:10:56.258Z,10.18
2022-09-10T17:13:22.843Z,11.20
2022-09-10T17:15:49.330Z,10.77
2022-09-10T17:18:16.574Z,8.82
2022-09-10T17:20:44.735Z,9.73
2022-09-10T17:23:13.370Z,10.75
2022-09-10T17:25:39.862Z,10.13
2022-09-10T17:28:06.410Z,12.70
2022-09-10T17:30:32.941Z,7.28
2022-09-10T17:32:59.619Z,7.57
2022-09-10T17:35:26.141Z,10.20
2022-09-10T17:37:52.839Z,10.23
2022-09-10T17:40:20.783Z,8.15
2022-09-10T17:42:48.986Z,9.90
2022-09-10T17:45:16.164Z,11.90
2022-09-10T17:47:42.693Z,10.68
2022-09-10T17:50:09.369Z,9.38
2022-09-10T17:52:35.871Z,10.02
2022-09-10T17:55:02.612Z,11.40
2022-09-10T17:57:29.067Z,14.02
2022-09-10T17:59:55.507Z,11.13
2022-09-10T18:02:22.021Z,9.07
2022-09-10T18:04:50.138Z,11.00
2022-09-10T18:07:16.619Z,10.15
2022-09-10T18:09:43.074Z,10.95
2022-09-10T18:12:09.647Z,9.85
2022-09-10T18:14:37.270Z,8.88
2022-09-10T18:17:03.785Z,10.60
2022-09-10T18:19:30.283Z,9.40
2022-09-10T18:21:56.773Z,9.73
2022-09-10T18:24:24.058Z,10.98
2022-09-10T18:26:56.441Z,12.48
2022-09-10T18:29:29.942Z,13.32
2022-09-10T18:31:58.580Z,14.88
2022-09-10T18:36:57.542Z,10.90
2022-09-10T18:39:26.420Z,11.07
2022-09-10T18:41:53.588Z,11.88
2022-09-10T18:44:29.120Z,14.88
2022-09-10T18:46:56.093Z,12.02
2022-09-10T18:49:26.464Z,11.60
2022-09-10T18:51:55.051Z,12.48
2022-09-10T18:56:49.521Z,15.75
2022-09-10T18:59:20.204Z,16.25
2022-09-10T19:01:48.170Z,14.77
2022-09-10T19:04:17.324Z,15.65
2022-09-10T19:06:46.876Z,14.68
2022-09-10T19:09:19.019Z,17.00
2022-09-10T19:11:47.009Z,15.82
2022-09-10T19:14:19.270Z,14.55
2022-09-10T19:16:47.969Z,17.92
2022-09-10T19:19:18.564Z,17.05
2022-09-10T19:21:50.656Z,15.68
2022-09-10T19:24:22.772Z,13.73
2022-09-10T19:26:56.801Z,15.07
2022-09-10T19:29:23.711Z,17.17
2022-09-10T19:31:51.018Z,16.80
2022-09-10T19:34:19.591Z,14.60
2022-09-10T19:39:15.822Z,15.40
2022-09-10T19:41:44.102Z,15.73
2022-09-10T19:44:12.646Z,14.85
2022-09-10T19:49:08.097Z,16.08
2022-09-10T19:51:37.798Z,14.65
2022-09-10T19:54:06.632Z,16.70
2022-09-10T19:56:39.854Z,16.40
2022-09-10T19:59:08.685Z,16.50
2022-09-10T20:01:41.036Z,15.75
2022-09-10T20:04:10.924Z,20.48
2022-09-10T20:06:38.523Z,17.65
2022-09-10T20:09:06.573Z,18.17
2022-09-10T20:11:35.184Z,19.02
2022-09-10T20:14:04.235Z,18.27
2022-09-10T20:16:31.319Z,23.80
2022-09-10T20:18:57.895Z,17.80
2022-09-10T20:21:27.831Z,17.63
2022-09-10T20:23:56.263Z,19.02
2022-09-10T20:26:29.197Z,25.38
2022-09-10T20:28:58.115Z,19.52
2022-09-10T20:31:27.768Z,23.60
2022-09-10T20:33:59.688Z,32.47
2022-09-10T20:36:27.848Z,24.60
2022-09-10T20:38:55.494Z,23.42
2022-09-10T20:41:30.234Z,28.93
2022-09-10T20:43:59.282Z,24.92
2022-09-10T20:46:27.823Z,25.00
2022-09-10T20:51:21.807Z,22.17
2022-09-10T20:53:48.582Z,18.50
2022-09-10T20:56:18.414Z,20.15
2022-09-10T20:58:46.205Z,19.77
2022-09-10T21:01:18.991Z,24.08
2022-09-10T21:03:47.847Z,21.83
2022-09-10T21:06:19.298Z,21.10
2022-09-10T21:08:49.852Z,20.75
2022-09-10T21:11:19.482Z,23.65
2022-09-10T21:13:53.564Z,20.60
2022-09-10T21:16:33.934Z,23.90
2022-09-10T21:19:03.560Z,24.10
2022-09-10T21:21:31.903Z,20.30
2022-09-10T21:24:07.419Z,20.35
2022-09-10T21:26:35.860Z,20.02
2022-09-10T21:29:04.400Z,19.67
2022-09-10T21:34:02.732Z,25.35
2022-09-10T21:36:31.409Z,22.63
2022-09-10T21:39:00.383Z,21.85
2022-09-10T21:41:36.455Z,24.15
2022-09-10T21:44:05.293Z,25.75
2022-09-10T21:46:32.408Z,23.13
2022-09-10T21:48:59.545Z,22.38
2022-09-10T21:51:26.722Z,22.48
2022-09-10T21:53:54.975Z,24.10
2022-09-10T21:56:22.747Z,21.13
2022-09-10T21:58:49.467Z,26.60
2022-09-10T22:01:19.554Z,25.10
2022-09-10T22:03:47.442Z,25.58
2022-09-10T22:06:15.457Z,22.45
2022-09-10T22:08:44.076Z,22.92
2022-09-10T22:13:43.032Z,21.23
2022-09-10T22:16:12.475Z,25.63
2022-09-10T22:18:40.020Z,22.80
2022-09-10T22:21:07.484Z,21.90
2022-09-10T22:23:36.443Z,27.83
2022-09-10T22:26:11.887Z,24.98
2022-09-10T22:28:39.116Z,24.58
2022-09-10T22:31:13.149Z,25.30
2022-09-10T22:33:41.859Z,25.00
2022-09-10T22:36:21.418Z,26.35
2022-09-10T22:38:52.577Z,23.98
2022-09-10T22:41:19.652Z,28.88
2022-09-10T22:43:46.220Z,27.75
2022-09-10T22:46:13.383Z,31.85
2022-09-10T22:48:42.498Z,23.80
2022-09-10T22:51:15.147Z,25.98
2022-09-10T22:53:42.888Z,23.90
2022-09-10T22:56:11.732Z,23.97
2022-09-10T22:58:38.262Z,26.70
2022-09-10T23:01:16.266Z,26.33
2022-09-10T23:03:44.213Z,23.38
2022-09-10T23:06:16.384Z,22.50
2022-09-10T23:08:45.172Z,22.33
2022-09-10T23:11:15.454Z,26.27
2022-09-10T23:13:47.632Z,20.33
2022-09-10T23:16:28.900Z,23.63
2022-09-10T23:18:57.917Z,22.40
2022-09-10T23:21:26.176Z,22.80
2022-09-10T23:23:55.423Z,27.30
2022-09-10T23:26:22.563Z,24.73
2022-09-10T23:28:49.424Z,26.40
2022-09-10T23:31:24.725Z,25.30
2022-09-10T23:34:03.594Z,29.30
2022-09-10T23:36:33.700Z,24.92
2022-09-10T23:39:01.523Z,23.58
2022-09-10T23:41:29.845Z,24.85
2022-09-10T23:43:57.199Z,23.77
2022-09-10T23:46:24.219Z,31.40
2022-09-10T23:48:51.585Z,26.33
2022-09-10T23:51:20.871Z,27.67
2022-09-10T23:53:48.466Z,23.40
2022-09-10T23:56:22.031Z,28.25
2022-09-10T23:58:49.516Z,27.92
